createdAt,value
2018-09-10T00:01:12.880Z,22.10
2018-09-10T00:03:48.629Z,25.30
2018-09-10T00:06:24.103Z,20.72
2018-09-10T00:08:59.634Z,25.82
2018-09-10T00:11:35.081Z,15.75
2018-09-10T00:14:10.655Z,20.37
2018-09-10T00:16:45.996Z,24.18
2018-09-10T00:19:21.744Z,11.48
2018-09-10T00:21:57.530Z,16.20
2018-09-10T00:24:33.149Z,6.50
2018-09-10T00:27:08.336Z,18.70
2018-09-10T00:29:43.735Z,5.40
2018-09-10T00:32:19.070Z,6.87
2018-09-10T00:34:54.576Z,6.00
2018-09-10T00:37:30.028Z,6.78
2018-09-10T00:40:06.317Z,8.88
2018-09-10T00:42:41.729Z,3.92
2018-09-10T00:45:17.309Z,5.00
2018-09-10T00:47:52.713Z,17.45
2018-09-10T00:50:28.191Z,13.98
2018-09-10T00:53:03.725Z,12.58
2018-09-10T00:55:39.176Z,7.72
2018-09-10T00:58:14.581Z,5.62
2018-09-10T01:00:50.230Z,5.70
2018-09-10T01:03:25.892Z,5.85
2018-09-10T01:06:01.571Z,7.92
2018-09-10T01:08:36.857Z,4.30
2018-09-10T01:11:12.424Z,7.92
2018-09-10T01:13:47.971Z,10.95
2018-09-10T01:16:23.362Z,3.70
2018-09-10T01:18:58.684Z,8.45
2018-09-10T01:21:34.238Z,6.50
2018-09-10T01:24:09.624Z,4.90
2018-09-10T01:26:45.161Z,12.13
2018-09-10T01:29:20.497Z,8.95
2018-09-10T01:31:56.134Z,11.22
2018-09-10T01:34:37.032Z,8.35
2018-09-10T01:37:12.412Z,5.25
2018-09-10T01:39:47.817Z,11.00
2018-09-10T01:42:23.306Z,7.53
2018-09-10T01:44:58.969Z,8.95
2018-09-10T01:47:34.536Z,5.28
2018-09-10T01:50:09.701Z,6.45
2018-09-10T01:52:45.229Z,7.45
2018-09-10T01:55:20.627Z,7.35
2018-09-10T01:57:56.312Z,4.78
2018-09-10T02:00:31.637Z,5.97
2018-09-10T02:03:07.166Z,4.55
2018-09-10T02:05:42.736Z,4.53
2018-09-10T02:08:18.307Z,6.35
2018-09-10T02:10:53.777Z,3.95
2018-09-10T02:13:29.289Z,7.33
2018-09-10T02:16:04.853Z,3.87
2018-09-10T02:18:40.585Z,6.85
2018-09-10T02:21:16.433Z,5.62
2018-09-10T02:23:51.888Z,3.83
2018-09-10T02:26:27.174Z,4.20
2018-09-10T02:29:02.801Z,5.00
2018-09-10T02:31:38.269Z,3.75
2018-09-10T02:34:13.897Z,4.37
2018-09-10T02:36:49.269Z,5.17
2018-09-10T02:39:24.699Z,4.30
2018-09-10T02:42:00.164Z,3.90
2018-09-10T02:44:35.591Z,4.70
2018-09-10T02:47:10.922Z,4.22
2018-09-10T02:49:46.536Z,4.28
2018-09-10T02:52:21.795Z,4.00
2018-09-10T02:54:57.342Z,4.40
2018-09-10T02:57:32.864Z,3.90
2018-09-10T03:00:09.416Z,6.37
2018-09-10T03:02:44.684Z,4.20
2018-09-10T03:05:20.365Z,4.40
2018-09-10T03:07:55.772Z,4.45
2018-09-10T03:10:31.441Z,4.20
2018-09-10T03:13:06.903Z,4.12
2018-09-10T03:15:42.485Z,4.47
2018-09-10T03:18:17.692Z,4.30
2018-09-10T03:20:53.122Z,4.60
2018-09-10T03:23:28.572Z,4.55
2018-09-10T03:26:03.954Z,4.90
2018-09-10T03:28:39.428Z,4.60
2018-09-10T03:31:14.953Z,4.40
2018-09-10T03:33:50.402Z,5.00
2018-09-10T03:36:25.918Z,5.37
2018-09-10T03:39:01.162Z,5.20
2018-09-10T03:41:36.734Z,5.60
2018-09-10T03:44:12.184Z,5.67
2018-09-10T03:46:47.559Z,6.35
2018-09-10T03:49:23.065Z,6.12
2018-09-10T03:51:58.674Z,6.60
2018-09-10T03:54:34.145Z,7.00
2018-09-10T03:57:09.573Z,6.65
2018-09-10T03:59:44.765Z,7.00
2018-09-10T04:02:20.326Z,6.92
2018-09-10T04:04:55.728Z,8.70
2018-09-10T04:07:31.117Z,8.48
2018-09-10T04:10:06.610Z,8.05
2018-09-10T04:12:42.039Z,7.55
2018-09-10T04:15:17.468Z,5.83
2018-09-10T04:17:53.048Z,7.60
2018-09-10T04:20:28.541Z,6.78
2018-09-10T04:23:04.232Z,5.83
2018-09-10T04:25:39.636Z,5.60
2018-09-10T04:28:15.073Z,6.00
2018-09-10T04:30:50.577Z,5.25
2018-09-10T04:33:26.305Z,5.92
2018-09-10T04:36:01.850Z,4.92
2018-09-10T04:38:37.207Z,6.05
2018-09-10T04:41:12.698Z,6.08
2018-09-10T04:43:48.063Z,5.08
2018-09-10T04:46:23.365Z,4.62
2018-09-10T04:48:58.790Z,5.22
2018-09-10T04:51:34.508Z,6.17
2018-09-10T04:54:09.969Z,4.72
2018-09-10T04:56:46.249Z,4.30
2018-09-10T04:59:21.676Z,6.95
2018-09-10T05:01:57.089Z,5.00
2018-09-10T05:04:33.112Z,5.00
2018-09-10T05:07:08.710Z,5.05
2018-09-10T05:09:44.538Z,4.60
2018-09-10T05:12:19.964Z,4.92
2018-09-10T05:14:55.424Z,5.67
2018-09-10T05:17:30.617Z,7.60
2018-09-10T05:20:06.194Z,10.50
2018-09-10T05:22:41.540Z,17.25
2018-09-10T05:25:17.145Z,12.20
2018-09-10T05:27:52.613Z,17.07
2018-09-10T05:30:28.146Z,13.35
2018-09-10T05:33:03.729Z,23.35
2018-09-10T05:35:39.327Z,22.20
2018-09-10T05:38:14.713Z,20.30
2018-09-10T05:40:50.204Z,15.03
2018-09-10T05:43:25.704Z,12.90
2018-09-10T05:46:01.153Z,18.50
2018-09-10T05:48:36.614Z,12.10
2018-09-10T05:51:12.017Z,6.70
2018-09-10T05:53:47.533Z,9.00
2018-09-10T05:56:22.990Z,7.53
2018-09-10T05:58:58.481Z,5.87
2018-09-10T06:01:33.849Z,9.23
2018-09-10T06:04:09.334Z,5.60
2018-09-10T06:06:46.068Z,5.00
2018-09-10T06:09:22.411Z,12.97
2018-09-10T06:11:58.026Z,7.07
2018-09-10T06:14:33.405Z,8.00
2018-09-10T06:17:08.774Z,3.27
2018-09-10T06:19:43.993Z,10.50
2018-09-10T06:22:19.478Z,5.17
2018-09-10T06:24:54.735Z,6.20
2018-09-10T06:27:30.251Z,6.80
2018-09-10T06:30:06.089Z,4.03
2018-09-10T06:32:41.585Z,3.87
2018-09-10T06:35:17.065Z,5.50
2018-09-10T06:37:53.271Z,8.07
2018-09-10T06:40:28.755Z,6.80
2018-09-10T06:43:04.756Z,4.90
2018-09-10T06:45:40.171Z,8.50
2018-09-10T06:48:15.698Z,12.60
2018-09-10T06:50:51.517Z,5.67
2018-09-10T06:53:26.937Z,4.57
2018-09-10T06:56:03.449Z,4.53
2018-09-10T06:58:38.909Z,5.00
2018-09-10T07:01:14.661Z,6.90
2018-09-10T07:03:50.673Z,5.85
2018-09-10T07:06:26.241Z,5.67
2018-09-10T07:09:01.684Z,4.40
2018-09-10T07:11:37.482Z,4.87
2018-09-10T07:14:13.365Z,6.33
2018-09-10T07:16:49.159Z,5.85
2018-09-10T07:19:25.245Z,11.85
2018-09-10T07:22:00.683Z,4.53
2018-09-10T07:24:36.145Z,9.33
2018-09-10T07:27:12.401Z,6.65
2018-09-10T07:29:47.867Z,5.37
2018-09-10T07:32:23.309Z,4.22
2018-09-10T07:34:58.720Z,5.40
2018-09-10T07:37:34.049Z,5.80
2018-09-10T07:40:09.921Z,7.50
2018-09-10T07:42:45.437Z,5.72
2018-09-10T07:45:21.015Z,8.00
2018-09-10T07:47:56.445Z,7.30
2018-09-10T07:50:32.357Z,6.80
2018-09-10T07:53:07.574Z,6.27
2018-09-10T07:55:43.096Z,10.00
2018-09-10T07:58:19.160Z,7.90
2018-09-10T08:00:54.700Z,7.57
2018-09-10T08:03:30.750Z,7.10
2018-09-10T08:06:06.131Z,6.90
2018-09-10T08:08:41.968Z,5.80
2018-09-10T08:11:17.456Z,5.60
2018-09-10T08:13:52.898Z,8.27
2018-09-10T08:16:30.094Z,7.37
2018-09-10T08:19:05.309Z,6.27
2018-09-10T08:21:41.351Z,8.83
2018-09-10T08:24:16.845Z,15.47
2018-09-10T08:26:52.246Z,8.67
2018-09-10T08:29:27.542Z,7.77
2018-09-10T08:32:03.339Z,8.57
2018-09-10T08:34:38.674Z,7.47
2018-09-10T08:37:14.302Z,6.90
2018-09-10T08:39:49.688Z,8.73
2018-09-10T08:42:25.214Z,8.50
2018-09-10T08:45:00.772Z,10.67
2018-09-10T08:47:36.440Z,7.00
2018-09-10T08:50:11.651Z,10.70
2018-09-10T08:52:47.308Z,11.67
2018-09-10T08:55:23.290Z,8.70
2018-09-10T08:57:58.676Z,8.53
2018-09-10T09:00:34.925Z,11.23
2018-09-10T09:03:10.301Z,9.37
2018-09-10T09:05:45.893Z,8.27
2018-09-10T09:08:21.350Z,8.60
2018-09-10T09:10:56.830Z,7.73
2018-09-10T09:13:32.532Z,7.20
2018-09-10T09:16:07.897Z,8.00
2018-09-10T09:18:44.393Z,11.33
2018-09-10T09:21:19.676Z,9.37
2018-09-10T09:23:55.461Z,10.13
2018-09-10T09:26:30.988Z,16.50
2018-09-10T09:29:06.644Z,13.40
2018-09-10T09:31:42.154Z,11.20
2018-09-10T09:34:17.852Z,10.03
2018-09-10T09:36:58.450Z,13.80
2018-09-10T09:39:39.311Z,7.40
2018-09-10T09:42:19.906Z,7.60
2018-09-10T09:45:00.657Z,9.47
2018-09-10T09:47:36.346Z,8.23
2018-09-10T09:50:11.764Z,9.30
2018-09-10T09:52:47.156Z,6.70
2018-09-10T09:55:22.744Z,8.10
2018-09-10T09:57:58.201Z,8.10
2018-09-10T10:00:38.785Z,8.07
2018-09-10T10:03:15.278Z,7.63
2018-09-10T10:05:51.086Z,8.90
2018-09-10T10:08:26.451Z,12.43
2018-09-10T10:11:02.201Z,9.30
2018-09-10T10:13:37.775Z,8.10
2018-09-10T10:16:13.388Z,10.07
2018-09-10T10:18:48.735Z,9.00
2018-09-10T10:21:24.136Z,11.00
2018-09-10T10:23:59.827Z,10.17
2018-09-10T10:26:35.377Z,9.93
2018-09-10T10:29:10.864Z,10.20
2018-09-10T10:31:46.492Z,9.70
2018-09-10T10:34:21.835Z,9.30
2018-09-10T10:36:57.359Z,9.50
2018-09-10T10:39:32.735Z,7.77
2018-09-10T10:42:08.125Z,8.57
2018-09-10T10:44:43.569Z,8.03
2018-09-10T10:47:19.138Z,7.07
2018-09-10T10:49:54.512Z,7.10
2018-09-10T10:52:29.934Z,6.50
2018-09-10T10:55:05.433Z,7.47
2018-09-10T10:57:41.435Z,5.77
2018-09-10T11:00:16.787Z,6.30
2018-09-10T11:02:52.366Z,5.33
2018-09-10T11:05:27.736Z,5.50
2018-09-10T11:08:03.149Z,6.67
2018-09-10T11:10:38.423Z,6.00
2018-09-10T11:13:14.018Z,5.90
2018-09-10T11:15:49.527Z,5.67
2018-09-10T11:18:25.613Z,5.20
2018-09-10T11:21:01.206Z,5.80
2018-09-10T11:23:36.769Z,4.40
2018-09-10T11:26:12.092Z,6.00
2018-09-10T11:28:47.437Z,4.27
2018-09-10T11:31:23.073Z,3.23
2018-09-10T11:33:58.524Z,3.70
2018-09-10T11:36:33.969Z,5.17
2018-09-10T11:39:09.488Z,4.97
2018-09-10T11:41:44.901Z,4.90
2018-09-10T11:44:20.442Z,5.00
2018-09-10T11:47:02.994Z,5.40
2018-09-10T11:49:38.372Z,3.43
2018-09-10T11:52:13.820Z,5.27
2018-09-10T11:54:49.225Z,4.43
2018-09-10T11:57:24.597Z,3.90
2018-09-10T12:00:00.009Z,4.57
2018-09-10T12:02:35.497Z,3.67
2018-09-10T12:05:11.005Z,4.13
2018-09-10T12:07:46.302Z,4.50
2018-09-10T12:10:22.027Z,5.23
2018-09-10T12:12:57.352Z,4.60
2018-09-10T12:15:32.847Z,3.97
2018-09-10T12:18:08.358Z,3.77
2018-09-10T12:20:43.834Z,3.67
2018-09-10T12:23:19.052Z,3.70
2018-09-10T12:26:01.228Z,3.50
2018-09-10T12:28:36.566Z,3.53
2018-09-10T12:31:11.948Z,3.50
2018-09-10T12:33:47.199Z,4.47
2018-09-10T12:36:22.704Z,3.30
2018-09-10T12:38:58.066Z,3.70
2018-09-10T12:41:33.471Z,3.80
2018-09-10T12:44:09.005Z,3.80
2018-09-10T12:46:44.324Z,3.27
2018-09-10T12:49:19.657Z,4.20
2018-09-10T12:51:55.057Z,3.40
2018-09-10T12:54:30.512Z,4.00
2018-09-10T12:57:06.585Z,3.67
2018-09-10T12:59:41.881Z,4.20
2018-09-10T13:02:17.208Z,4.57
2018-09-10T13:04:52.812Z,4.73
2018-09-10T13:07:28.164Z,6.27
2018-09-10T13:10:03.615Z,3.33
2018-09-10T13:12:39.269Z,2.90
2018-09-10T13:15:14.754Z,3.93
2018-09-10T13:17:50.121Z,3.80
2018-09-10T13:20:25.281Z,3.30
2018-09-10T13:23:00.670Z,6.70
2018-09-10T13:25:36.192Z,11.60
2018-09-10T13:28:11.684Z,3.37
2018-09-10T13:30:47.179Z,6.40
2018-09-10T13:33:22.592Z,5.20
2018-09-10T13:35:58.015Z,5.13
2018-09-10T13:38:33.416Z,4.53
2018-09-10T13:41:08.814Z,6.20
2018-09-10T13:43:44.411Z,3.97
2018-09-10T13:46:19.805Z,4.90
2018-09-10T13:48:55.197Z,3.77
2018-09-10T13:51:30.692Z,4.17
2018-09-10T13:54:06.192Z,4.40
2018-09-10T13:56:41.550Z,4.40
2018-09-10T13:59:17.258Z,3.30
2018-09-10T14:01:52.576Z,8.63
2018-09-10T14:04:29.000Z,4.37
2018-09-10T14:07:04.350Z,3.97
2018-09-10T14:09:40.248Z,3.53
2018-09-10T14:12:15.773Z,4.00
2018-09-10T14:14:51.454Z,5.17
2018-09-10T14:17:26.745Z,3.80
2018-09-10T14:20:02.314Z,4.50
2018-09-10T14:22:37.669Z,3.93
2018-09-10T14:25:13.245Z,4.83
2018-09-10T14:27:48.973Z,4.40
2018-09-10T14:30:24.416Z,5.03
2018-09-10T14:33:00.953Z,3.83
2018-09-10T14:35:36.512Z,3.50
2018-09-10T14:38:11.989Z,3.50
2018-09-10T14:40:47.433Z,3.67
2018-09-10T14:43:22.922Z,3.97
2018-09-10T14:45:58.523Z,3.80
2018-09-10T14:48:33.905Z,3.90
2018-09-10T14:51:09.333Z,4.30
2018-09-10T14:53:44.763Z,11.60
2018-09-10T14:56:20.354Z,3.77
2018-09-10T14:58:55.990Z,3.50
2018-09-10T15:01:31.528Z,3.90
2018-09-10T15:04:06.981Z,4.30
2018-09-10T15:06:42.481Z,4.47
2018-09-10T15:09:24.659Z,4.10
2018-09-10T15:12:00.179Z,3.73
2018-09-10T15:14:35.770Z,3.70
2018-09-10T15:17:11.562Z,4.77
2018-09-10T15:19:46.961Z,4.27
2018-09-10T15:22:22.341Z,5.20
2018-09-10T15:24:58.005Z,3.30
2018-09-10T15:27:33.505Z,4.00
2018-09-10T15:30:09.174Z,4.50
2018-09-10T15:32:44.953Z,4.70
2018-09-10T15:35:20.164Z,4.00
2018-09-10T15:37:55.581Z,4.57
2018-09-10T15:40:31.431Z,4.47
2018-09-10T15:43:06.809Z,3.70
2018-09-10T15:45:42.206Z,4.27
2018-09-10T15:48:17.599Z,6.03
2018-09-10T15:50:52.918Z,4.10
2018-09-10T15:53:28.451Z,10.50
2018-09-10T15:56:03.916Z,6.03
2018-09-10T15:58:39.326Z,7.30
2018-09-10T16:01:14.710Z,5.20
2018-09-10T16:03:50.268Z,5.10
2018-09-10T16:06:25.589Z,4.57
2018-09-10T16:09:01.091Z,12.00
2018-09-10T16:11:36.675Z,5.87
2018-09-10T16:14:13.666Z,4.83
2018-09-10T16:16:49.263Z,5.10
2018-09-10T16:19:24.709Z,4.80
2018-09-10T16:22:00.242Z,3.87
2018-09-10T16:24:35.713Z,3.37
2018-09-10T16:27:11.216Z,3.23
2018-09-10T16:29:46.704Z,2.73
2018-09-10T16:32:22.173Z,3.30
2018-09-10T16:34:57.786Z,8.63
2018-09-10T16:37:33.285Z,3.40
2018-09-10T16:40:08.757Z,3.60
2018-09-10T16:42:45.261Z,5.37
2018-09-10T16:45:20.739Z,10.00
2018-09-10T16:47:55.976Z,4.30
2018-09-10T16:50:31.597Z,4.40
2018-09-10T16:53:06.975Z,3.60
2018-09-10T16:55:42.702Z,9.57
2018-09-10T16:58:18.072Z,3.90
2018-09-10T17:00:53.652Z,3.17
2018-09-10T17:03:29.932Z,6.50
2018-09-10T17:06:06.236Z,7.20
2018-09-10T17:08:42.575Z,5.70
2018-09-10T17:11:18.712Z,5.93
2018-09-10T17:13:54.510Z,2.93
2018-09-10T17:16:31.177Z,5.67
2018-09-10T17:19:06.513Z,6.90
2018-09-10T17:21:42.234Z,4.10
2018-09-10T17:24:17.480Z,5.10
2018-09-10T17:26:53.246Z,6.30
2018-09-10T17:29:28.758Z,4.43
2018-09-10T17:32:04.659Z,6.73
2018-09-10T17:34:40.540Z,4.17
2018-09-10T17:37:16.051Z,3.90
2018-09-10T17:39:51.514Z,5.00
2018-09-10T17:42:28.681Z,7.67
2018-09-10T17:45:04.149Z,6.90
2018-09-10T17:47:40.082Z,7.03
2018-09-10T17:50:16.221Z,7.23
2018-09-10T17:52:52.064Z,6.40
2018-09-10T17:55:28.495Z,10.30
2018-09-10T17:58:04.744Z,17.47
2018-09-10T18:00:41.553Z,3.77
2018-09-10T18:03:16.979Z,7.63
2018-09-10T18:05:52.525Z,6.90
2018-09-10T18:08:28.253Z,6.50
2018-09-10T18:11:03.840Z,10.13
2018-09-10T18:13:39.558Z,9.37
2018-09-10T18:16:15.328Z,11.73
2018-09-10T18:18:51.055Z,5.63
2018-09-10T18:21:26.653Z,12.70
2018-09-10T18:24:02.267Z,11.23
2018-09-10T18:26:37.529Z,6.30
2018-09-10T18:29:13.015Z,8.93
2018-09-10T18:31:48.437Z,6.62
2018-09-10T18:34:24.271Z,8.43
2018-09-10T18:36:59.895Z,14.38
2018-09-10T18:39:35.540Z,15.00
2018-09-10T18:42:11.025Z,19.43
2018-09-10T18:44:46.513Z,9.60
2018-09-10T18:47:21.993Z,6.80
2018-09-10T18:49:57.526Z,9.17
2018-09-10T18:52:32.891Z,5.20
2018-09-10T18:55:08.822Z,14.03
2018-09-10T18:57:44.101Z,10.30
2018-09-10T19:00:19.723Z,13.32
2018-09-10T19:02:55.249Z,8.63
2018-09-10T19:05:30.930Z,12.90
2018-09-10T19:08:06.701Z,13.80
2018-09-10T19:10:42.257Z,6.80
2018-09-10T19:13:17.513Z,6.60
2018-09-10T19:15:53.210Z,5.63
2018-09-10T19:18:33.972Z,16.67
2018-09-10T19:21:09.814Z,23.73
2018-09-10T19:23:45.337Z,10.20
2018-09-10T19:26:22.346Z,13.03
2018-09-10T19:28:57.753Z,18.75
2018-09-10T19:31:34.201Z,25.30
2018-09-10T19:34:09.574Z,11.10
2018-09-10T19:36:45.152Z,9.15
2018-09-10T19:39:21.022Z,12.20
2018-09-10T19:41:56.637Z,14.43
2018-09-10T19:44:32.509Z,16.55
2018-09-10T19:47:08.385Z,41.28
2018-09-10T19:49:43.878Z,64.20
2018-09-10T19:52:19.515Z,23.12
2018-09-10T19:54:54.902Z,25.05
2018-09-10T19:57:30.614Z,45.67
2018-09-10T20:00:06.625Z,26.17
2018-09-10T20:02:42.049Z,37.38
2018-09-10T20:05:17.557Z,41.65
2018-09-10T20:07:53.190Z,50.95
2018-09-10T20:10:28.549Z,48.05
2018-09-10T20:13:04.961Z,9.85
2018-09-10T20:15:40.961Z,15.55
2018-09-10T20:18:17.093Z,32.03
2018-09-10T20:20:52.578Z,9.10
2018-09-10T20:23:28.093Z,15.08
2018-09-10T20:26:03.420Z,32.30
2018-09-10T20:28:38.972Z,29.67
2018-09-10T20:31:14.371Z,30.20
2018-09-10T20:33:55.409Z,29.95
2018-09-10T20:36:30.631Z,20.02
2018-09-10T20:39:10.631Z,37.73
2018-09-10T20:41:45.973Z,12.90
2018-09-10T20:44:21.504Z,18.35
2018-09-10T20:46:56.851Z,9.78
2018-09-10T20:49:32.260Z,16.73
2018-09-10T20:52:08.787Z,10.53
2018-09-10T20:54:44.815Z,10.48
2018-09-10T20:57:20.236Z,6.75
2018-09-10T20:59:56.001Z,10.70
2018-09-10T21:02:31.367Z,7.25
2018-09-10T21:05:07.151Z,10.82
2018-09-10T21:07:42.711Z,13.13
2018-09-10T21:10:18.072Z,15.90
2018-09-10T21:12:53.549Z,7.90
2018-09-10T21:15:29.260Z,10.38
2018-09-10T21:18:04.761Z,10.85
2018-09-10T21:20:40.150Z,6.60
2018-09-10T21:23:15.541Z,9.68
2018-09-10T21:25:51.453Z,17.02
2018-09-10T21:28:26.751Z,23.90
2018-09-10T21:31:02.162Z,15.38
2018-09-10T21:33:37.512Z,11.38
2018-09-10T21:36:13.155Z,20.12
2018-09-10T21:38:48.723Z,9.05
2018-09-10T21:41:24.300Z,10.50
2018-09-10T21:43:59.679Z,8.70
2018-09-10T21:46:35.241Z,16.62
2018-09-10T21:49:10.749Z,12.58
2018-09-10T21:51:46.140Z,11.40
2018-09-10T21:54:21.875Z,12.70
2018-09-10T21:56:57.534Z,25.27
2018-09-10T21:59:32.937Z,9.55
2018-09-10T22:02:08.522Z,19.67
2018-09-10T22:04:44.204Z,17.73
2018-09-10T22:07:19.932Z,36.33
2018-09-10T22:09:55.489Z,27.55
2018-09-10T22:12:31.207Z,31.73
2018-09-10T22:15:06.690Z,20.27
2018-09-10T22:17:42.545Z,14.55
2018-09-10T22:20:19.317Z,10.05
2018-09-10T22:22:55.026Z,25.37
2018-09-10T22:25:30.519Z,27.22
2018-09-10T22:28:06.408Z,9.10
2018-09-10T22:30:41.855Z,7.15
2018-09-10T22:33:17.468Z,7.90
2018-09-10T22:35:52.820Z,10.98
2018-09-10T22:38:28.338Z,24.45
2018-09-10T22:41:03.864Z,7.28
2018-09-10T22:43:39.433Z,8.30
2018-09-10T22:46:15.146Z,8.55
2018-09-10T22:48:50.639Z,14.33
2018-09-10T22:51:26.099Z,7.45
2018-09-10T22:54:01.632Z,10.08
2018-09-10T22:56:37.168Z,16.00
2018-09-10T22:59:12.932Z,22.42
2018-09-10T23:01:48.414Z,7.92
2018-09-10T23:04:24.250Z,7.03
2018-09-10T23:06:59.813Z,8.28
2018-09-10T23:09:35.369Z,12.33
2018-09-10T23:12:10.841Z,23.10
2018-09-10T23:14:46.296Z,18.77
2018-09-10T23:17:21.729Z,18.30
2018-09-10T23:19:57.223Z,11.03
2018-09-10T23:22:32.409Z,29.32
2018-09-10T23:25:07.969Z,5.80
2018-09-10T23:27:43.258Z,7.60
2018-09-10T23:30:21.692Z,14.83
2018-09-10T23:32:57.149Z,28.40
2018-09-10T23:35:32.717Z,23.45
2018-09-10T23:38:08.172Z,4.40
2018-09-10T23:40:43.553Z,6.80
2018-09-10T23:43:19.023Z,9.70
2018-09-10T23:45:54.825Z,5.10
2018-09-10T23:48:30.215Z,14.13
2018-09-10T23:51:05.822Z,5.97
2018-09-10T23:53:41.081Z,18.70
2018-09-10T23:56:16.532Z,8.08
2018-09-10T23:58:51.850Z,4.10
